createdAt,value
2019-05-22T00:02:29.891Z,2.50
2019-05-22T00:06:39.043Z,2.30
2019-05-22T00:10:46.875Z,2.33
2019-05-22T00:14:52.619Z,2.37
2019-05-22T00:18:59.063Z,2.20
2019-05-22T00:23:08.112Z,2.70
2019-05-22T00:27:15.126Z,2.50
2019-05-22T00:31:22.172Z,2.30
2019-05-22T00:35:29.123Z,2.60
2019-05-22T00:39:33.838Z,2.22
2019-05-22T00:43:44.666Z,2.62
2019-05-22T00:47:51.409Z,2.08
2019-05-22T00:52:07.208Z,1.60
2019-05-22T00:56:29.581Z,2.22
2019-05-22T01:00:39.742Z,2.00
2019-05-22T01:04:46.568Z,2.02
2019-05-22T01:08:53.267Z,2.12
2019-05-22T01:13:01.814Z,1.82
2019-05-22T01:17:07.951Z,2.30
2019-05-22T01:21:15.488Z,2.12
2019-05-22T01:25:24.416Z,2.30
2019-05-22T01:29:29.935Z,2.60
2019-05-22T01:33:42.379Z,2.30
2019-05-22T01:37:48.380Z,2.58
2019-05-22T01:41:56.329Z,3.08
2019-05-22T01:46:03.309Z,3.98
2019-05-22T01:50:10.944Z,4.28
2019-05-22T01:54:18.237Z,4.00
2019-05-22T01:58:24.610Z,4.03
2019-05-22T02:02:30.607Z,4.58
2019-05-22T02:06:39.285Z,4.85
2019-05-22T02:10:45.950Z,5.78
2019-05-22T02:14:52.905Z,5.30
2019-05-22T02:18:58.021Z,5.70
2019-05-22T02:23:03.112Z,7.33
2019-05-22T02:27:10.042Z,7.00
2019-05-22T02:31:23.239Z,6.95
2019-05-22T02:35:29.298Z,6.20
2019-05-22T02:39:36.068Z,7.17
2019-05-22T02:43:41.033Z,6.80
2019-05-22T02:47:46.922Z,7.15
2019-05-22T02:51:53.972Z,7.85
2019-05-22T02:55:58.869Z,8.78
2019-05-22T03:00:04.824Z,11.65
2019-05-22T03:04:11.432Z,11.20
2019-05-22T03:08:16.453Z,12.78
2019-05-22T03:12:24.453Z,16.80
2019-05-22T03:16:36.186Z,15.93
2019-05-22T03:20:41.941Z,17.35
2019-05-22T03:24:47.526Z,19.30
2019-05-22T03:28:53.380Z,18.98
2019-05-22T03:33:01.084Z,17.40
2019-05-22T03:37:07.101Z,17.73
2019-05-22T03:41:13.638Z,18.90
2019-05-22T03:45:21.344Z,16.50
2019-05-22T03:49:30.804Z,17.32
2019-05-22T03:53:36.650Z,18.48
2019-05-22T03:57:42.624Z,16.07
2019-05-22T04:01:47.891Z,15.80
2019-05-22T04:05:53.628Z,16.05
2019-05-22T04:09:59.362Z,15.93
2019-05-22T04:14:04.949Z,14.65
2019-05-22T04:18:14.437Z,16.02
2019-05-22T04:22:20.788Z,17.05
2019-05-22T04:26:26.681Z,16.62
2019-05-22T04:30:33.296Z,17.10
2019-05-22T04:34:38.821Z,18.82
2019-05-22T04:38:44.006Z,20.15
2019-05-22T04:42:50.705Z,21.65
2019-05-22T04:46:56.235Z,24.92
2019-05-22T04:51:24.008Z,22.52
2019-05-22T04:55:30.098Z,25.32
2019-05-22T04:59:36.487Z,25.30
2019-05-22T05:03:41.436Z,23.57
2019-05-22T05:07:46.906Z,23.62
2019-05-22T05:11:51.720Z,24.30
2019-05-22T05:15:57.111Z,24.43
2019-05-22T05:20:01.872Z,23.60
2019-05-22T05:24:07.656Z,21.85
2019-05-22T05:28:13.917Z,22.77
2019-05-22T05:32:19.295Z,21.73
2019-05-22T05:36:24.091Z,17.55
2019-05-22T05:40:33.719Z,17.92
2019-05-22T05:44:39.093Z,17.50
2019-05-22T05:48:44.786Z,17.42
2019-05-22T05:52:51.441Z,17.60
2019-05-22T05:56:59.521Z,18.65
2019-05-22T06:01:15.257Z,18.75
2019-05-22T06:05:21.316Z,23.05
2019-05-22T06:09:27.171Z,23.52
2019-05-22T06:13:32.765Z,25.48
2019-05-22T06:18:13.873Z,25.77
2019-05-22T06:22:19.937Z,28.27
2019-05-22T06:26:37.393Z,28.05
2019-05-22T06:30:46.240Z,29.75
2019-05-22T06:34:52.584Z,32.70
2019-05-22T06:39:13.730Z,30.25
2019-05-22T06:43:59.237Z,28.45
2019-05-22T06:48:04.428Z,30.05
2019-05-22T06:52:09.504Z,32.65
2019-05-22T06:56:14.311Z,31.97
2019-05-22T07:00:24.873Z,28.55
2019-05-22T07:04:29.757Z,29.92
2019-05-22T07:08:35.501Z,27.40
2019-05-22T07:12:42.531Z,27.45
2019-05-22T07:16:48.553Z,25.50
2019-05-22T07:20:56.831Z,24.20
2019-05-22T07:25:02.617Z,22.58
2019-05-22T07:29:11.073Z,25.92
2019-05-22T07:33:17.192Z,25.72
2019-05-22T07:37:23.544Z,26.30
2019-05-22T07:41:28.711Z,23.60
2019-05-22T07:45:35.074Z,24.85
2019-05-22T07:49:40.747Z,24.63
2019-05-22T07:53:47.074Z,21.68
2019-05-22T07:57:56.382Z,22.93
2019-05-22T08:02:02.163Z,20.65
2019-05-22T08:06:08.222Z,21.27
2019-05-22T08:10:15.669Z,21.33
2019-05-22T08:14:23.728Z,20.70
2019-05-22T08:18:30.545Z,21.20
2019-05-22T08:22:37.997Z,22.10
2019-05-22T08:26:53.752Z,22.75
2019-05-22T08:30:51.509Z,21.07
2019-05-22T08:34:56.594Z,21.00
2019-05-22T08:39:02.349Z,19.50
2019-05-22T08:43:08.478Z,20.17
2019-05-22T08:47:13.576Z,20.40
2019-05-22T08:51:19.844Z,20.30
2019-05-22T08:55:25.942Z,21.97
2019-05-22T08:59:30.742Z,21.65
2019-05-22T09:03:35.693Z,24.02
2019-05-22T09:07:41.145Z,19.05
2019-05-22T09:11:45.943Z,21.90
2019-05-22T09:15:51.817Z,21.17
2019-05-22T09:19:57.763Z,19.37
2019-05-22T09:24:04.656Z,19.82
2019-05-22T09:28:10.121Z,19.20
2019-05-22T09:32:15.328Z,19.32
2019-05-22T09:36:20.204Z,16.80
2019-05-22T09:40:25.645Z,17.20
2019-05-22T09:44:30.526Z,17.25
2019-05-22T09:48:36.609Z,15.93
2019-05-22T09:52:56.315Z,17.12
2019-05-22T09:56:49.996Z,16.93
2019-05-22T10:00:55.179Z,16.27
2019-05-22T10:04:59.974Z,17.30
2019-05-22T10:09:07.521Z,16.27
2019-05-22T10:13:13.230Z,18.70
2019-05-22T10:17:19.016Z,20.17
2019-05-22T10:21:26.886Z,20.37
2019-05-22T10:25:31.809Z,21.37
2019-05-22T10:29:37.061Z,22.05
2019-05-22T10:33:42.456Z,22.37
2019-05-22T10:37:48.101Z,21.82
2019-05-22T10:41:52.912Z,21.17
2019-05-22T10:45:58.110Z,20.92
2019-05-22T10:50:03.957Z,21.52
2019-05-22T10:54:09.034Z,21.10
2019-05-22T10:58:14.307Z,21.77
2019-05-22T11:02:19.908Z,21.48
2019-05-22T11:06:25.673Z,20.05
2019-05-22T11:10:30.843Z,21.70
2019-05-22T11:14:35.655Z,22.07
2019-05-22T11:18:41.110Z,22.25
2019-05-22T11:22:46.543Z,23.40
2019-05-22T11:26:51.706Z,21.62
2019-05-22T11:30:57.830Z,21.02
2019-05-22T11:35:03.108Z,19.90
2019-05-22T11:39:13.468Z,20.37
2019-05-22T11:43:18.538Z,20.77
2019-05-22T11:47:24.207Z,21.25
2019-05-22T11:51:28.925Z,22.00
2019-05-22T11:55:45.364Z,22.90
2019-05-22T11:59:41.376Z,23.83
2019-05-22T12:03:47.667Z,21.85
2019-05-22T12:07:52.552Z,21.35
2019-05-22T12:11:58.461Z,21.70
2019-05-22T12:16:05.399Z,21.93
2019-05-22T12:20:11.575Z,21.93
2019-05-22T12:24:26.930Z,21.65
2019-05-22T12:28:23.948Z,20.90
2019-05-22T12:32:30.684Z,22.25
2019-05-22T12:36:35.920Z,22.30
2019-05-22T12:40:41.577Z,20.62
2019-05-22T12:44:47.742Z,18.85
2019-05-22T12:48:54.491Z,19.55
2019-05-22T12:53:02.083Z,17.45
2019-05-22T12:57:08.048Z,17.57
2019-05-22T13:01:14.214Z,18.62
2019-05-22T13:05:19.101Z,19.67
2019-05-22T13:09:24.190Z,19.32
2019-05-22T13:13:30.114Z,19.70
2019-05-22T13:17:36.166Z,19.23
2019-05-22T13:21:42.320Z,18.30
2019-05-22T13:25:47.489Z,17.52
2019-05-22T13:29:54.175Z,18.25
2019-05-22T13:34:01.086Z,19.70
2019-05-22T13:38:07.057Z,17.52
2019-05-22T13:42:13.570Z,16.80
2019-05-22T13:46:18.788Z,17.55
2019-05-22T13:50:28.652Z,18.80
2019-05-22T13:54:32.773Z,18.57
2019-05-22T13:58:38.224Z,19.23
2019-05-22T14:02:43.395Z,20.68
2019-05-22T14:06:49.395Z,18.25
2019-05-22T14:10:55.696Z,18.87
2019-05-22T14:15:00.516Z,17.85
2019-05-22T14:19:05.860Z,19.12
2019-05-22T14:23:11.253Z,19.15
2019-05-22T14:27:16.144Z,21.12
2019-05-22T14:31:21.919Z,24.55
2019-05-22T14:35:45.016Z,22.82
2019-05-22T14:39:35.795Z,23.22
2019-05-22T14:43:40.532Z,23.27
2019-05-22T14:47:45.830Z,21.52
2019-05-22T14:51:51.799Z,20.75
2019-05-22T14:55:59.051Z,20.92
2019-05-22T15:00:04.651Z,18.62
2019-05-22T15:04:09.462Z,20.25
2019-05-22T15:08:14.660Z,20.12
2019-05-22T15:12:19.564Z,20.50
2019-05-22T15:16:24.944Z,20.37
2019-05-22T15:20:42.008Z,20.27
2019-05-22T15:24:46.896Z,19.45
2019-05-22T15:28:52.356Z,19.02
2019-05-22T15:32:58.132Z,19.35
2019-05-22T15:37:03.547Z,19.07
2019-05-22T15:41:11.355Z,16.87
2019-05-22T15:45:19.787Z,17.35
2019-05-22T15:49:25.773Z,16.17
2019-05-22T15:53:33.267Z,16.48
2019-05-22T15:57:40.305Z,14.83
2019-05-22T16:01:47.047Z,15.60
2019-05-22T16:05:53.974Z,15.13
2019-05-22T16:10:00.648Z,14.75
2019-05-22T16:14:08.209Z,15.50
2019-05-22T16:18:14.625Z,15.28
2019-05-22T16:22:19.405Z,15.35
2019-05-22T16:26:24.996Z,15.20
2019-05-22T16:30:30.661Z,14.25
2019-05-22T16:34:37.612Z,13.15
2019-05-22T16:38:44.005Z,12.90
2019-05-22T16:42:50.716Z,13.53
2019-05-22T16:46:58.008Z,12.85
2019-05-22T16:51:04.400Z,12.18
2019-05-22T16:55:12.694Z,11.85
2019-05-22T16:59:19.246Z,10.78
2019-05-22T17:03:26.007Z,10.95
2019-05-22T17:07:32.945Z,10.53
2019-05-22T17:11:38.596Z,10.63
2019-05-22T17:15:43.993Z,9.85
2019-05-22T17:19:50.698Z,9.13
2019-05-22T17:23:55.983Z,9.45
2019-05-22T17:28:01.572Z,8.10
2019-05-22T17:32:08.219Z,8.08
2019-05-22T17:36:14.836Z,7.33
2019-05-22T17:40:20.944Z,7.92
2019-05-22T17:44:27.203Z,8.15
2019-05-22T17:48:33.949Z,9.20
2019-05-22T17:52:38.975Z,9.08
2019-05-22T17:56:44.212Z,8.75
2019-05-22T18:00:49.728Z,8.85
2019-05-22T18:04:55.168Z,8.55
2019-05-22T18:09:00.037Z,8.70
2019-05-22T18:13:06.741Z,7.83
2019-05-22T18:17:12.510Z,7.62
2019-05-22T18:21:18.244Z,7.75
2019-05-22T18:25:23.132Z,7.15
2019-05-22T18:29:28.027Z,7.62
2019-05-22T18:33:33.334Z,7.22
2019-05-22T18:37:38.224Z,6.85
2019-05-22T18:41:44.356Z,6.25
2019-05-22T18:45:50.027Z,7.80
2019-05-22T18:49:54.892Z,8.08
2019-05-22T18:53:59.985Z,7.70
2019-05-22T18:58:04.949Z,7.62
2019-05-22T19:02:10.915Z,7.53
2019-05-22T19:06:29.325Z,7.67
2019-05-22T19:10:24.539Z,7.42
2019-05-22T19:14:29.336Z,7.00
2019-05-22T19:18:34.047Z,8.23
2019-05-22T19:22:39.997Z,8.38
2019-05-22T19:26:45.272Z,8.43
2019-05-22T19:30:51.564Z,7.47
2019-05-22T19:34:56.415Z,7.78
2019-05-22T19:39:01.839Z,7.75
2019-05-22T19:43:08.181Z,8.13
2019-05-22T19:47:14.265Z,8.30
2019-05-22T19:51:20.012Z,7.70
2019-05-22T19:55:27.652Z,8.75
2019-05-22T19:59:33.988Z,8.45
2019-05-22T20:03:39.205Z,7.87
2019-05-22T20:07:44.751Z,8.85
2019-05-22T20:11:49.672Z,9.23
2019-05-22T20:15:56.493Z,9.18
2019-05-22T20:20:02.269Z,9.05
2019-05-22T20:24:09.200Z,8.88
2019-05-22T20:28:15.246Z,9.50
2019-05-22T20:32:20.728Z,8.78
2019-05-22T20:36:25.427Z,8.83
2019-05-22T20:40:30.781Z,8.65
2019-05-22T20:44:35.957Z,9.30
2019-05-22T20:48:41.761Z,9.78
2019-05-22T20:52:47.449Z,9.30
2019-05-22T20:56:53.196Z,10.35
2019-05-22T21:00:58.501Z,11.18
2019-05-22T21:05:05.517Z,10.20
2019-05-22T21:09:11.435Z,9.93
2019-05-22T21:13:18.682Z,10.55
2019-05-22T21:17:25.340Z,10.60
2019-05-22T21:21:30.652Z,10.88
2019-05-22T21:25:35.476Z,11.88
2019-05-22T21:29:40.428Z,10.85
2019-05-22T21:33:46.056Z,10.68
2019-05-22T21:37:51.224Z,11.73
2019-05-22T21:41:56.724Z,12.03
2019-05-22T21:46:01.532Z,11.93
2019-05-22T21:50:08.123Z,11.63
2019-05-22T21:54:14.179Z,12.43
2019-05-22T21:58:19.645Z,12.82
2019-05-22T22:02:31.027Z,14.38
2019-05-22T22:06:36.377Z,14.67
2019-05-22T22:10:41.288Z,14.10
2019-05-22T22:14:47.799Z,14.60
2019-05-22T22:18:53.198Z,15.40
2019-05-22T22:22:57.995Z,15.10
2019-05-22T22:27:04.067Z,16.15
2019-05-22T22:31:12.051Z,16.65
2019-05-22T22:35:18.599Z,15.70
2019-05-22T22:39:25.447Z,15.00
2019-05-22T22:43:32.874Z,14.35
2019-05-22T22:47:41.951Z,16.40
2019-05-22T22:51:48.948Z,16.57
2019-05-22T22:55:55.438Z,15.78
2019-05-22T23:00:00.748Z,16.97
2019-05-22T23:04:08.980Z,14.83
2019-05-22T23:08:17.831Z,16.12
2019-05-22T23:12:22.623Z,15.20
2019-05-22T23:16:28.699Z,15.85
2019-05-22T23:20:34.020Z,16.85
2019-05-22T23:24:40.900Z,17.57
2019-05-22T23:28:45.784Z,17.00
2019-05-22T23:32:52.363Z,17.20
2019-05-22T23:36:58.750Z,16.60
2019-05-22T23:41:04.843Z,18.20
2019-05-22T23:45:14.905Z,17.05
2019-05-22T23:49:20.308Z,17.65
2019-05-22T23:53:27.055Z,16.70
2019-05-22T23:57:32.445Z,17.12
